Time;durP1;ratioP1;P1;durP2;ratioP2;P2;SDS_P1;SDS_P2;PMS_P1;PMS_P2;Temp;Humidity;BMP_temperature;BMP_pressure;BME280_temperature;BME280_humidity;BME280_pressure;Samples;Min_cycle;Max_cycle;Signal;HPM_P1;HPM_P2
2021/11/28 00:01:12;;;;;;;;;;;;;;;11.24;61.83;98695.81;5005256;27;98033;-66
2021/11/28 00:03:38;;;;;;;;;;;;;;;11.24;61.13;98690.41;5003522;27;107558;-67
2021/11/28 00:06:14;;;;;;;;;;;;;;;11.23;61.27;98691.50;5004132;27;97954;-58
2021/11/28 00:11:35;;;;;;;;;;;;;;;11.21;61.35;98681.03;5001521;27;97894;-57
2021/11/28 00:14:13;;;;;;;;;;;;;;;11.19;61.42;98680.53;5004949;27;98034;-66
2021/11/28 00:16:39;;;;;;;;;;;;;;;11.18;61.66;98676.25;5003933;27;98844;-65
2021/11/28 00:19:05;;;;;;;;;;;;;;;11.17;61.59;98671.19;5003037;27;126258;-58
2021/11/28 00:21:32;;;;;;;;;;;;;;;11.15;61.16;98676.88;5003337;27;98096;-58
2021/11/28 00:23:58;;;;;;;;;;;;;;;11.14;61.30;98669.91;4998008;27;98035;-67
2021/11/28 00:26:24;;;;;;;;;;;;;;;11.14;61.31;98671.81;5003610;27;99078;-66
2021/11/28 00:28:50;;;;;;;;;;;;;;;11.14;61.47;98677.19;5003316;27;121495;-58
2021/11/28 00:31:15;;;;;;;;;;;;;;;11.12;61.18;98680.22;4985033;27;97999;-67
2021/11/28 00:33:41;;;;;;;;;;;;;;;11.11;61.38;98680.53;5003993;27;98805;-58
2021/11/28 00:36:07;;;;;;;;;;;;;;;11.11;61.79;98694.00;5003047;27;128075;-57
2021/11/28 00:38:33;;;;;;;;;;;;;;;11.09;61.60;98688.94;5002973;27;98412;-58
2021/11/28 00:41:00;;;;;;;;;;;;;;;11.10;61.32;98697.81;5002587;27;127806;-58
2021/11/28 00:43:25;;;;;;;;;;;;;;;11.09;61.31;98691.63;5003645;27;97887;-67
2021/11/28 00:45:51;;;;;;;;;;;;;;;11.07;62.02;98694.63;5003558;27;127851;-66
2021/11/28 00:48:18;;;;;;;;;;;;;;;11.07;61.36;98688.44;5003455;27;98342;-57
2021/11/28 00:50:48;;;;;;;;;;;;;;;11.06;61.77;98687.66;5003710;27;98318;-57
2021/11/28 00:53:16;;;;;;;;;;;;;;;11.05;61.27;98693.38;5004159;27;97943;-57
2021/11/28 00:55:42;;;;;;;;;;;;;;;11.04;61.43;98713.31;4985203;27;98827;-57
2021/11/28 00:58:08;;;;;;;;;;;;;;;11.03;61.57;98734.09;5003549;27;106121;-58
2021/11/28 01:00:34;;;;;;;;;;;;;;;11.02;61.79;98739.81;5003185;27;122326;-58
2021/11/28 01:03:00;;;;;;;;;;;;;;;11.00;61.73;98734.75;5003920;27;98088;-66
2021/11/28 01:05:26;;;;;;;;;;;;;;;11.00;61.82;98734.75;5003899;27;104423;-67
2021/11/28 01:07:52;;;;;;;;;;;;;;;10.99;61.65;98730.44;5002928;27;115875;-67
2021/11/28 01:10:17;;;;;;;;;;;;;;;10.98;61.55;98738.84;5002774;27;127246;-67
2021/11/28 01:12:44;;;;;;;;;;;;;;;10.97;61.71;98737.28;5003005;27;98508;-66
2021/11/28 01:15:11;;;;;;;;;;;;;;;10.96;61.45;98738.34;4984411;27;99012;-67
2021/11/28 01:17:38;;;;;;;;;;;;;;;10.95;61.83;98734.88;5003682;27;98903;-67
2021/11/28 01:20:04;;;;;;;;;;;;;;;10.95;61.62;98739.47;5003557;27;99591;-57
2021/11/28 01:22:30;;;;;;;;;;;;;;;10.93;61.74;98744.38;5002856;27;107344;-66
2021/11/28 01:24:56;;;;;;;;;;;;;;;10.93;61.58;98750.56;5002458;27;126461;-67
2021/11/28 01:27:22;;;;;;;;;;;;;;;10.92;61.87;98748.97;5003212;27;126880;-67
2021/11/28 01:29:48;;;;;;;;;;;;;;;10.92;61.44;98748.97;5003521;27;98923;-66
2021/11/28 01:32:14;;;;;;;;;;;;;;;10.92;61.88;98746.25;5002501;27;116016;-66
2021/11/28 01:34:40;;;;;;;;;;;;;;;10.92;61.40;98750.88;5002686;27;128233;-58
2021/11/28 01:37:06;;;;;;;;;;;;;;;10.90;61.51;98745.00;5001712;27;98899;-58
2021/11/28 01:39:33;;;;;;;;;;;;;;;10.90;61.76;98753.09;5003349;27;98101;-58
2021/11/28 01:41:59;;;;;;;;;;;;;;;10.90;61.62;98758.47;5002464;27;97732;-66
2021/11/28 01:44:24;;;;;;;;;;;;;;;10.89;61.76;98762.28;5001731;27;128154;-58
2021/11/28 01:46:50;;;;;;;;;;;;;;;10.88;61.79;98761.47;5002080;27;128455;-58
2021/11/28 01:49:16;;;;;;;;;;;;;;;10.88;61.73;98757.97;5003416;27;127663;-58
2021/11/28 01:51:42;;;;;;;;;;;;;;;10.87;61.79;98759.88;5002659;27;98107;-67
2021/11/28 01:54:13;;;;;;;;;;;;;;;10.87;61.69;98756.41;5000942;27;128219;-58
2021/11/28 01:56:40;;;;;;;;;;;;;;;10.86;61.65;98763.69;5003487;27;98260;-66
2021/11/28 01:59:07;;;;;;;;;;;;;;;10.86;61.40;98762.91;5003203;27;109075;-66
2021/11/28 02:01:33;;;;;;;;;;;;;;;10.86;61.53;98746.72;5003157;27;97802;-58
2021/11/28 02:03:59;;;;;;;;;;;;;;;10.86;61.65;98744.03;5003488;27;98290;-67
2021/11/28 02:06:25;;;;;;;;;;;;;;;10.84;61.84;98743.53;4967424;27;98297;-67
2021/11/28 02:08:52;;;;;;;;;;;;;;;10.85;61.48;98747.84;5001612;27;127531;-67
2021/11/28 02:11:18;;;;;;;;;;;;;;;10.82;61.52;98741.97;5003692;27;97856;-58
2021/11/28 02:13:44;;;;;;;;;;;;;;;10.84;61.41;98746.22;5002101;27;100062;-60
2021/11/28 02:16:11;;;;;;;;;;;;;;;10.85;61.26;98750.53;5003115;27;98079;-67
2021/11/28 02:18:37;;;;;;;;;;;;;;;10.84;61.40;98741.63;4982752;27;106666;-57
2021/11/28 02:21:04;;;;;;;;;;;;;;;10.84;61.38;98749.72;5001144;27;110650;-67
2021/11/28 02:23:30;;;;;;;;;;;;;;;10.84;61.75;98749.72;5002382;27;98208;-58
2021/11/28 02:25:59;;;;;;;;;;;;;;;10.84;61.59;98746.22;5001031;27;127555;-67
2021/11/28 02:28:24;;;;;;;;;;;;;;;10.83;61.54;98748.13;5002684;27;98128;-67
2021/11/28 02:30:51;;;;;;;;;;;;;;;10.82;61.69;98735.78;4982640;27;115164;-67
2021/11/28 02:33:16;;;;;;;;;;;;;;;10.81;61.23;98726.91;5002431;27;98099;-67
2021/11/28 02:35:42;;;;;;;;;;;;;;;10.82;61.21;98717.69;5001964;27;128731;-58
2021/11/28 02:38:08;;;;;;;;;;;;;;;10.81;61.71;98716.13;5001765;27;114045;-66
2021/11/28 02:40:36;;;;;;;;;;;;;;;10.80;61.19;98722.59;5000959;27;102743;-58
2021/11/28 02:43:03;;;;;;;;;;;;;;;10.80;61.46;98719.91;4999707;27;115539;-57
2021/11/28 02:45:29;;;;;;;;;;;;;;;10.79;61.21;98712.91;5001858;27;98815;-66
2021/11/28 02:47:56;;;;;;;;;;;;;;;10.77;61.20;98712.44;5001490;27;97892;-67
2021/11/28 02:50:22;;;;;;;;;;;;;;;10.76;61.34;98701.97;4984932;27;97650;-66
2021/11/28 02:52:53;;;;;;;;;;;;;;;10.76;61.85;98704.66;5000138;27;114347;-67
2021/11/28 02:55:30;;;;;;;;;;;;;;;10.75;61.74;98700.38;4982401;28;98765;-67
2021/11/28 02:57:56;;;;;;;;;;;;;;;10.74;61.52;98691.50;4999858;27;107722;-58
2021/11/28 03:00:23;;;;;;;;;;;;;;;10.72;61.50;98688.31;5002244;27;103958;-58
2021/11/28 03:02:49;;;;;;;;;;;;;;;10.72;61.37;98692.91;5001414;27;106366;-66
2021/11/28 03:05:15;;;;;;;;;;;;;;;10.72;61.28;98698.31;4982632;27;125944;-58
2021/11/28 03:07:41;;;;;;;;;;;;;;;10.71;61.24;98699.41;5001995;27;98128;-67
2021/11/28 03:10:27;;;;;;;;;;;;;;;10.69;61.24;98688.97;5002811;27;97762;-58
2021/11/28 03:12:53;;;;;;;;;;;;;;;10.67;61.28;98696.53;5004489;27;112901;-57
2021/11/28 03:15:19;;;;;;;;;;;;;;;10.68;61.47;98700.03;5003881;27;122321;-66
2021/11/28 03:17:45;;;;;;;;;;;;;;;10.66;61.60;98705.75;5004179;27;128121;-67
2021/11/28 03:20:10;;;;;;;;;;;;;;;10.65;61.46;98706.84;5005882;27;97583;-58
2021/11/28 03:22:36;;;;;;;;;;;;;;;10.64;61.76;98707.13;5003268;27;125731;-58
2021/11/28 03:25:10;;;;;;;;;;;;;;;10.63;61.15;98722.53;5005655;27;128571;-58
2021/11/28 03:27:35;;;;;;;;;;;;;;;10.62;61.44;98726.31;5005390;27;104325;-67
2021/11/28 03:30:01;;;;;;;;;;;;;;;10.59;61.75;98726.94;5004723;27;117541;-57
2021/11/28 03:32:27;;;;;;;;;;;;;;;10.59;61.72;98735.03;5004389;27;115878;-67
2021/11/28 03:34:53;;;;;;;;;;;;;;;10.58;61.42;98744.22;5004535;27;125823;-67
2021/11/28 03:37:19;;;;;;;;;;;;;;;10.58;61.46;98755.00;5003725;27;127209;-58
2021/11/28 03:39:45;;;;;;;;;;;;;;;10.56;61.31;98746.41;5005429;27;117742;-67
2021/11/28 03:42:11;;;;;;;;;;;;;;;10.55;61.55;98742.13;5005504;27;127967;-66
2021/11/28 03:44:37;;;;;;;;;;;;;;;10.56;61.68;98743.72;5004267;27;127692;-58
2021/11/28 03:47:03;;;;;;;;;;;;;;;10.53;61.67;98745.16;5002916;27;127449;-58
2021/11/28 03:49:29;;;;;;;;;;;;;;;10.53;61.77;98745.16;5004556;27;116452;-58
2021/11/28 03:51:56;;;;;;;;;;;;;;;10.51;61.06;98739.25;4985974;27;99001;-58
2021/11/28 03:54:22;;;;;;;;;;;;;;;10.52;61.64;98737.34;5005318;27;97740;-57
2021/11/28 03:56:48;;;;;;;;;;;;;;;10.51;61.11;98743.84;5003633;27;127830;-58
2021/11/28 03:59:14;;;;;;;;;;;;;;;10.51;61.49;98741.16;5004405;27;118605;-58
2021/11/28 04:01:39;;;;;;;;;;;;;;;10.50;61.57;98734.19;5005187;27;98351;-58
2021/11/28 04:04:05;;;;;;;;;;;;;;;10.48;61.30;98745.25;5003616;27;128078;-58
2021/11/28 04:06:31;;;;;;;;;;;;;;;10.49;61.76;98754.13;5003811;27;128129;-66
2021/11/28 04:08:57;;;;;;;;;;;;;;;10.48;61.29;98758.72;5005424;27;118084;-67
2021/11/28 04:11:23;;;;;;;;;;;;;;;10.47;61.60;98756.34;5005241;27;120786;-58
2021/11/28 04:13:49;;;;;;;;;;;;;;;10.47;61.64;98753.66;5004634;27;122737;-58
2021/11/28 04:16:15;;;;;;;;;;;;;;;10.45;60.98;98751.28;5005045;27;124476;-58
2021/11/28 04:18:41;;;;;;;;;;;;;;;10.45;61.22;98743.19;5005303;27;98020;-66
2021/11/28 04:21:07;;;;;;;;;;;;;;;10.45;61.37;98751.28;4983771;27;128528;-58
2021/11/28 04:23:33;;;;;;;;;;;;;;;10.44;61.02;98752.34;5003073;27;127832;-58
2021/11/28 04:25:59;;;;;;;;;;;;;;;10.43;61.35;98741.91;5003792;27;126823;-58
2021/11/28 04:28:25;;;;;;;;;;;;;;;10.43;61.72;98740.00;5004824;27;98157;-57
2021/11/28 04:30:50;;;;;;;;;;;;;;;10.42;61.21;98749.19;5003814;27;128190;-58
2021/11/28 04:33:16;;;;;;;;;;;;;;;10.42;61.01;98745.69;5003368;27;128791;-67
2021/11/28 04:35:43;;;;;;;;;;;;;;;10.41;61.03;98755.66;5004585;27;98198;-58
2021/11/28 04:38:09;;;;;;;;;;;;;;;10.40;61.36;98759.47;5004283;27;97988;-58
2021/11/28 04:40:35;;;;;;;;;;;;;;;10.40;61.54;98758.66;4970461;27;99148;-58
2021/11/28 04:43:01;;;;;;;;;;;;;;;10.38;61.47;98756.28;5003782;27;128530;-58
2021/11/28 04:45:27;;;;;;;;;;;;;;;10.38;61.12;98758.19;5004563;27;127483;-58
2021/11/28 04:47:53;;;;;;;;;;;;;;;10.36;61.47;98749.59;4995392;27;111730;-58
2021/11/28 04:50:19;;;;;;;;;;;;;;;10.36;61.38;98755.00;5004455;27;109748;-58
2021/11/28 04:52:45;;;;;;;;;;;;;;;10.35;60.76;98762.28;5001898;27;127316;-67
2021/11/28 04:55:11;;;;;;;;;;;;;;;10.34;60.85;98754.53;5004431;27;104540;-67
2021/11/28 04:57:37;;;;;;;;;;;;;;;10.33;61.38;98761.78;5004283;27;97767;-58
2021/11/28 05:00:06;;;;;;;;;;;;;;;10.32;61.05;98763.69;5004786;27;98382;-58
2021/11/28 05:02:32;;;;;;;;;;;;;;;10.31;61.37;98772.09;5001976;27;121386;-58
2021/11/28 05:04:58;;;;;;;;;;;;;;;10.30;61.32;98770.50;5003277;27;127991;-58
2021/11/28 05:07:24;;;;;;;;;;;;;;;10.30;61.70;98767.81;4985938;27;117593;-58
2021/11/28 05:09:50;;;;;;;;;;;;;;;10.30;61.26;98770.50;5003487;27;124303;-58
2021/11/28 05:12:16;;;;;;;;;;;;;;;10.29;61.67;98771.56;5002529;27;128179;-58
2021/11/28 05:14:42;;;;;;;;;;;;;;;10.28;61.77;98775.38;5005135;27;98830;-58
2021/11/28 05:17:08;;;;;;;;;;;;;;;10.28;60.87;98772.69;4984232;27;116785;-57
2021/11/28 05:19:34;;;;;;;;;;;;;;;10.26;61.21;98766.81;4984706;27;99710;-57
2021/11/28 05:22:01;;;;;;;;;;;;;;;10.25;60.78;98765.22;5002352;27;115384;-57
2021/11/28 05:24:27;;;;;;;;;;;;;;;10.24;60.98;98767.09;4984832;27;98159;-58
2021/11/28 05:26:53;;;;;;;;;;;;;;;10.23;60.86;98765.50;5003260;27;116728;-67
2021/11/28 05:29:19;;;;;;;;;;;;;;;10.22;61.70;98766.59;5004726;27;98636;-58
2021/11/28 05:31:45;;;;;;;;;;;;;;;10.21;61.30;98767.69;5002994;27;119172;-58
2021/11/28 05:34:11;;;;;;;;;;;;;;;10.20;60.99;98766.09;5003526;27;98318;-58
2021/11/28 05:36:37;;;;;;;;;;;;;;;10.19;61.27;98772.59;5003045;27;119294;-67
2021/11/28 05:39:04;;;;;;;;;;;;;;;10.19;60.90;98764.53;5005092;27;99880;-57
2021/11/28 05:41:30;;;;;;;;;;;;;;;10.17;60.96;98758.63;5003787;27;98735;-57
2021/11/28 05:43:56;;;;;;;;;;;;;;;10.17;61.62;98768.59;5002807;27;107515;-58
2021/11/28 05:46:22;;;;;;;;;;;;;;;10.15;60.53;98763.53;5003178;27;98041;-67
2021/11/28 05:48:48;;;;;;;;;;;;;;;10.15;61.15;98765.44;5001919;27;127317;-67
2021/11/28 05:51:14;;;;;;;;;;;;;;;10.14;61.19;98766.53;5001850;27;123899;-66
2021/11/28 05:53:40;;;;;;;;;;;;;;;10.13;61.31;98767.63;5002671;27;103891;-64
2021/11/28 05:56:06;;;;;;;;;;;;;;;10.12;61.00;98763.34;5003176;27;97995;-58
2021/11/28 05:58:32;;;;;;;;;;;;;;;10.10;60.91;98766.38;5001644;27;128937;-58
2021/11/28 06:00:58;;;;;;;;;;;;;;;10.09;61.17;98753.97;5003368;27;98547;-58
2021/11/28 06:03:24;;;;;;;;;;;;;;;10.09;61.20;98760.16;5004281;27;127557;-66
2021/11/28 06:05:50;;;;;;;;;;;;;;;10.08;60.85;98749.69;5005180;27;117117;-67
2021/11/28 06:08:16;;;;;;;;;;;;;;;10.07;60.95;98743.53;5004341;27;130485;-67
2021/11/28 06:10:42;;;;;;;;;;;;;;;10.06;61.13;98752.72;5004804;27;129104;-67
2021/11/28 06:13:07;;;;;;;;;;;;;;;10.05;60.40;98753.78;4984746;27;127800;-67
2021/11/28 06:15:33;;;;;;;;;;;;;;;10.05;60.84;98755.69;4986188;27;117209;-67
2021/11/28 06:17:59;;;;;;;;;;;;;;;10.03;60.84;98750.63;4985339;27;127459;-65
2021/11/28 06:20:25;;;;;;;;;;;;;;;10.03;61.01;98757.91;5004596;27;118076;-67
2021/11/28 06:22:54;;;;;;;;;;;;;;;10.02;61.03;98758.97;5003387;27;125376;-67
2021/11/28 06:25:20;;;;;;;;;;;;;;;10.01;60.69;98757.41;5004854;27;97823;-67
2021/11/28 06:27:46;;;;;;;;;;;;;;;10.00;60.63;98755.81;5004515;27;126521;-66
2021/11/28 06:30:12;;;;;;;;;;;;;;;10.00;60.46;98755.81;5004713;27;128260;-67
2021/11/28 06:32:38;;;;;;;;;;;;;;;9.98;60.79;98755.31;5004651;27;97918;-67
2021/11/28 06:35:05;;;;;;;;;;;;;;;9.99;60.90;98756.94;5004024;27;117475;-67
2021/11/28 06:37:31;;;;;;;;;;;;;;;9.97;60.79;98764.50;5004093;27;117881;-67
2021/11/28 06:39:57;;;;;;;;;;;;;;;9.97;60.73;98764.50;5004854;27;101764;-67
2021/11/28 06:42:22;;;;;;;;;;;;;;;9.96;60.08;98768.28;5001901;27;127475;-67
2021/11/28 06:44:48;;;;;;;;;;;;;;;9.95;60.90;98775.56;5003127;27;115969;-67
2021/11/28 06:47:15;;;;;;;;;;;;;;;9.93;60.40;98756.22;5002933;27;128177;-67
2021/11/28 06:49:41;;;;;;;;;;;;;;;9.93;60.70;98761.59;5004777;27;97878;-67
2021/11/28 06:52:07;;;;;;;;;;;;;;;9.93;61.10;98761.59;5003963;27;97940;-67
2021/11/28 06:54:34;;;;;;;;;;;;;;;9.93;60.40;98758.91;5002155;27;98043;-57
2021/11/28 06:56:59;;;;;;;;;;;;;;;9.93;60.00;98758.13;4984185;27;98783;-58
2021/11/28 06:59:26;;;;;;;;;;;;;;;9.93;60.79;98758.13;5002263;27;128741;-67
2021/11/28 07:01:52;;;;;;;;;;;;;;;9.92;60.53;98751.16;5003034;27;98432;-67
2021/11/28 07:04:18;;;;;;;;;;;;;;;9.93;60.77;98755.44;4983513;27;116858;-58
2021/11/28 07:06:44;;;;;;;;;;;;;;;9.93;60.80;98755.44;4984520;27;103914;-58
2021/11/28 07:09:09;;;;;;;;;;;;;;;9.93;60.55;98761.59;5000505;27;98486;-67
2021/11/28 07:11:35;;;;;;;;;;;;;;;9.94;60.38;98757.84;4998196;27;126486;-57
2021/11/28 07:14:01;;;;;;;;;;;;;;;9.94;60.21;98760.53;4980312;27;118028;-58
2021/11/28 07:16:27;;;;;;;;;;;;;;;9.96;60.21;98760.22;4997583;27;129951;-67
2021/11/28 07:18:53;;;;;;;;;;;;;;;9.96;60.02;98770.97;4998723;27;98211;-66
2021/11/28 07:21:19;;;;;;;;;;;;;;;9.97;60.17;98780.63;4998323;27;128911;-67
2021/11/28 07:23:46;;;;;;;;;;;;;;;9.97;60.73;98775.25;4999655;27;98130;-67
2021/11/28 07:26:12;;;;;;;;;;;;;;;9.99;60.62;98778.47;4981833;27;98925;-67
2021/11/28 07:28:38;;;;;;;;;;;;;;;10.00;59.96;98786.22;4997600;27;99952;-58
2021/11/28 07:31:05;;;;;;;;;;;;;;;10.01;60.25;98787.81;4999628;27;98329;-58
2021/11/28 07:33:31;;;;;;;;;;;;;;;10.03;59.86;98787.50;4998169;27;98458;-67
2021/11/28 07:35:57;;;;;;;;;;;;;;;10.06;60.32;98797.66;4999338;27;98199;-67
2021/11/28 07:38:23;;;;;;;;;;;;;;;10.06;59.59;98798.47;4996486;27;126718;-57
2021/11/28 07:40:49;;;;;;;;;;;;;;;10.09;59.66;98810.50;4998060;27;127920;-57
2021/11/28 07:43:16;;;;;;;;;;;;;;;10.11;59.76;98807.53;4997540;27;117366;-67
2021/11/28 07:45:42;;;;;;;;;;;;;;;10.13;60.14;98814.19;4999070;27;99384;-58
2021/11/28 07:48:08;;;;;;;;;;;;;;;10.14;59.49;98807.72;4996268;27;126096;-66
2021/11/28 07:50:34;;;;;;;;;;;;;;;10.15;60.31;98812.00;4998231;27;98311;-58
2021/11/28 07:53:00;;;;;;;;;;;;;;;10.19;59.70;98817.59;4999298;27;116925;-58
2021/11/28 07:55:26;;;;;;;;;;;;;;;10.20;60.54;98825.34;4997837;27;102154;-58
2021/11/28 07:57:51;;;;;;;;;;;;;;;10.21;60.59;98813.47;5001757;27;97846;-67
2021/11/28 08:00:17;;;;;;;;;;;;;;;10.24;59.94;98817.47;5001051;27;128380;-58
2021/11/28 08:02:43;;;;;;;;;;;;;;;10.26;59.69;98821.47;5001140;27;98421;-67
2021/11/28 08:05:09;;;;;;;;;;;;;;;10.27;59.93;98823.06;5000351;27;128965;-58
2021/11/28 08:07:35;;;;;;;;;;;;;;;10.30;60.04;98819.78;5002330;27;98660;-66
2021/11/28 08:10:01;;;;;;;;;;;;;;;10.34;59.96;98817.25;5001479;27;106121;-66
2021/11/28 08:12:27;;;;;;;;;;;;;;;10.35;59.70;98815.38;5001947;27;97912;-67
2021/11/28 08:14:53;;;;;;;;;;;;;;;10.38;60.47;98812.06;4992116;27;128356;-57
2021/11/28 08:17:19;;;;;;;;;;;;;;;10.41;59.75;98816.81;4999621;27;118978;-58
2021/11/28 08:19:45;;;;;;;;;;;;;;;10.42;59.66;98813.84;4982079;27;121966;-58
2021/11/28 08:22:11;;;;;;;;;;;;;;;10.44;59.64;98822.41;5001506;27;98056;-58
2021/11/28 08:24:37;;;;;;;;;;;;;;;10.45;60.07;98832.09;5001735;27;99106;-67
2021/11/28 08:27:03;;;;;;;;;;;;;;;10.48;59.74;98831.47;5002043;27;127455;-66
2021/11/28 08:29:29;;;;;;;;;;;;;;;10.50;59.72;98836.56;4982137;27;120502;-65
2021/11/28 08:31:55;;;;;;;;;;;;;;;10.52;59.83;98840.50;5003303;27;97775;-65
2021/11/28 08:34:21;;;;;;;;;;;;;;;10.55;60.21;98831.03;5001274;27;128960;-66
2021/11/28 08:36:47;;;;;;;;;;;;;;;10.56;59.53;98827.22;5000763;27;129780;-67
2021/11/28 08:39:13;;;;;;;;;;;;;;;10.60;59.98;98838.19;5001874;27;127107;-66
2021/11/28 08:41:40;;;;;;;;;;;;;;;10.62;59.91;98831.41;5003314;27;97704;-67
2021/11/28 08:44:06;;;;;;;;;;;;;;;10.65;59.67;98843.44;4984159;27;99298;-66
2021/11/28 08:46:32;;;;;;;;;;;;;;;10.67;60.15;98831.28;5001503;27;117099;-67
2021/11/28 08:48:58;;;;;;;;;;;;;;;10.69;59.56;98842.56;5001308;27;114564;-66
2021/11/28 08:51:25;;;;;;;;;;;;;;;10.72;59.69;98841.91;5000543;27;118483;-66
2021/11/28 08:53:53;;;;;;;;;;;;;;;10.75;60.01;98838.63;5002911;27;98089;-67
2021/11/28 08:56:19;;;;;;;;;;;;;;;10.78;60.27;98845.31;5002742;27;98990;-66
2021/11/28 08:58:45;;;;;;;;;;;;;;;10.81;59.65;98844.69;5001455;27;98665;-66
2021/11/28 09:01:11;;;;;;;;;;;;;;;10.84;59.70;98843.28;5003694;27;97796;-66
2021/11/28 09:03:37;;;;;;;;;;;;;;;10.87;59.80;98842.66;5001786;27;97933;-67
2021/11/28 09:06:02;;;;;;;;;;;;;;;10.89;59.94;98838.56;5002713;27;122999;-66
2021/11/28 09:08:28;;;;;;;;;;;;;;;10.92;59.98;98837.13;5000876;27;97968;-66
2021/11/28 09:10:54;;;;;;;;;;;;;;;10.95;59.75;98850.00;5001651;27;117570;-67
2021/11/28 09:13:20;;;;;;;;;;;;;;;10.96;60.04;98852.38;5001096;27;109048;-67
2021/11/28 09:15:46;;;;;;;;;;;;;;;11.00;59.98;98858.78;5001187;27;98920;-67
2021/11/28 09:18:19;;;;;;;;;;;;;;;11.04;59.83;98859.75;5002341;27;98197;-66
2021/11/28 09:20:49;;;;;;;;;;;;;;;11.07;60.05;98861.81;5002038;27;99204;-66
2021/11/28 09:25:41;;;;;;;;;;;;;;;11.13;59.55;98850.91;4999497;27;97898;-66
2021/11/28 09:28:07;;;;;;;;;;;;;;;11.16;60.08;98840.28;5001362;27;126081;-66
2021/11/28 09:30:33;;;;;;;;;;;;;;;11.19;60.09;98846.94;5002861;27;97699;-65
2021/11/28 09:33:00;;;;;;;;;;;;;;;11.21;60.02;98839.38;5002723;27;98021;-65
2021/11/28 09:35:27;;;;;;;;;;;;;;;11.24;59.71;98831.44;4983676;27;98412;-66
2021/11/28 09:37:53;;;;;;;;;;;;;;;11.27;59.83;98832.72;5000955;27;98203;-66
2021/11/28 09:40:19;;;;;;;;;;;;;;;11.28;59.80;98826.22;5001361;27;97923;-66
2021/11/28 09:42:52;;;;;;;;;;;;;;;11.31;59.85;98828.28;5000831;27;127090;-66
2021/11/28 09:45:19;;;;;;;;;;;;;;;11.31;60.04;98825.59;5002869;27;98811;-66
2021/11/28 09:47:45;;;;;;;;;;;;;;;11.35;59.97;98825.75;5001625;27;98473;-66
2021/11/28 09:50:11;;;;;;;;;;;;;;;11.35;59.60;98820.38;5001922;27;101388;-66
2021/11/28 09:52:37;;;;;;;;;;;;;;;11.37;59.86;98820.88;5000150;27;98407;-66
2021/11/28 09:55:06;;;;;;;;;;;;;;;11.38;59.82;98817.06;5000228;27;128126;-67
2021/11/28 09:57:32;;;;;;;;;;;;;;;11.40;59.76;98825.66;5000666;27;98097;-66
2021/11/28 09:59:58;;;;;;;;;;;;;;;11.42;60.11;98810.72;5000215;27;117661;-66
2021/11/28 10:02:29;;;;;;;;;;;;;;;11.44;59.95;98807.72;5000553;27;98242;-66
2021/11/28 10:04:55;;;;;;;;;;;;;;;11.46;60.34;98800.09;5001112;27;98775;-65
2021/11/28 10:07:21;;;;;;;;;;;;;;;11.48;59.91;98798.69;5001015;27;102485;-65
2021/11/28 10:09:47;;;;;;;;;;;;;;;11.49;59.84;98796.78;5000676;27;107938;-67
2021/11/28 10:12:26;;;;;;;;;;;;;;;11.52;59.65;98793.47;4999619;27;126688;-67
2021/11/28 10:14:56;;;;;;;;;;;;;;;11.54;59.93;98789.31;4999163;27;123397;-67
2021/11/28 10:17:28;;;;;;;;;;;;;;;11.57;59.93;98784.41;5000583;27;98067;-66
2021/11/28 10:19:55;;;;;;;;;;;;;;;11.57;60.14;98787.13;4974739;27;97758;-66
2021/11/28 10:22:21;;;;;;;;;;;;;;;11.58;59.98;98789.50;5000366;27;99350;-67
2021/11/28 10:24:56;;;;;;;;;;;;;;;11.60;59.72;98783.78;5000448;27;98415;-67
2021/11/28 10:27:47;;;;;;;;;;;;;;;11.62;59.86;98782.34;4993242;27;98196;-67
2021/11/28 10:30:26;;;;;;;;;;;;;;;11.65;60.21;98787.13;5001907;27;97925;-66
2021/11/28 10:32:52;;;;;;;;;;;;;;;11.66;60.23;98785.22;4995998;27;99050;-66
2021/11/28 10:35:18;;;;;;;;;;;;;;;11.67;59.81;98786.81;4998917;27;126790;-67
2021/11/28 10:37:46;;;;;;;;;;;;;;;11.67;60.29;98787.63;5001274;27;97978;-67
2021/11/28 10:40:16;;;;;;;;;;;;;;;11.67;59.97;98792.19;5001362;27;98087;-67
2021/11/28 10:42:42;;;;;;;;;;;;;;;11.67;60.08;98789.50;4999571;27;113222;-66
2021/11/28 10:45:11;;;;;;;;;;;;;;;11.66;59.98;98790.63;4999302;27;105910;-67
2021/11/28 10:47:42;;;;;;;;;;;;;;;11.66;60.39;98785.22;4999761;27;98498;-67
2021/11/28 10:50:27;;;;;;;;;;;;;;;11.67;59.95;98784.09;5000285;27;97900;-67
2021/11/28 10:53:04;;;;;;;;;;;;;;;11.67;60.20;98792.19;5000011;27;98415;-67
2021/11/28 10:55:52;;;;;;;;;;;;;;;11.68;60.25;98807.31;4983750;27;98706;-67
2021/11/28 10:58:30;;;;;;;;;;;;;;;11.66;60.31;98804.91;4999824;27;118666;-67
2021/11/28 11:01:06;;;;;;;;;;;;;;;11.67;60.14;98806.50;5000890;27;98081;-67
2021/11/28 11:03:48;;;;;;;;;;;;;;;11.68;60.21;98799.22;4999542;27;97917;-66
2021/11/28 11:06:24;;;;;;;;;;;;;;;11.69;60.04;98800.78;4999756;27;97762;-67
2021/11/28 11:08:53;;;;;;;;;;;;;;;11.70;60.33;98796.97;4981154;27;98264;-67
2021/11/28 11:11:19;;;;;;;;;;;;;;;11.70;60.39;98803.16;5000010;27;97890;-66
2021/11/28 11:14:05;;;;;;;;;;;;;;;11.70;60.34;98802.38;4998623;27;120831;-66
2021/11/28 11:16:46;;;;;;;;;;;;;;;11.70;60.19;98792.38;5000138;27;98584;-66
2021/11/28 11:19:25;;;;;;;;;;;;;;;11.69;60.33;98790.00;4999562;27;97875;-67
2021/11/28 11:22:07;;;;;;;;;;;;;;;11.68;60.21;98786.50;5001092;27;97884;-67
2021/11/28 11:24:34;;;;;;;;;;;;;;;11.68;60.50;98785.72;4999779;27;98961;-67
2021/11/28 11:27:10;;;;;;;;;;;;;;;11.67;60.59;98787.63;4992655;27;98230;-67
2021/11/28 11:29:36;;;;;;;;;;;;;;;11.66;60.61;98794.09;4999850;27;97745;-67
2021/11/28 11:32:08;;;;;;;;;;;;;;;11.67;60.53;98793.03;4967642;27;98342;-67
2021/11/28 11:34:34;;;;;;;;;;;;;;;11.69;60.34;98790.00;5002959;27;98300;-66
2021/11/28 11:37:02;;;;;;;;;;;;;;;11.69;60.20;98790.00;4977071;28;98263;-67
2021/11/28 11:39:30;;;;;;;;;;;;;;;11.70;60.34;98778.09;4984698;28;98098;-67
2021/11/28 11:41:56;;;;;;;;;;;;;;;11.71;60.53;98777.78;4984690;28;97935;-67
2021/11/28 11:44:24;;;;;;;;;;;;;;;11.72;60.41;98782.06;4983684;28;98258;-67
2021/11/28 11:46:50;;;;;;;;;;;;;;;11.72;60.41;98773.97;4983287;28;97683;-67
2021/11/28 11:49:16;;;;;;;;;;;;;;;11.75;60.61;98773.34;4981694;28;98273;-67
2021/11/28 11:51:43;;;;;;;;;;;;;;;11.76;60.39;98774.94;4982343;28;98268;-58
2021/11/28 11:54:26;;;;;;;;;;;;;;;11.78;60.20;98769.19;4982051;28;98972;-58
2021/11/28 11:57:05;;;;;;;;;;;;;;;11.81;60.09;98768.56;4980789;28;117031;-58
2021/11/28 12:00:12;;;;;;;;;;;;;;;11.85;60.48;98768.78;4964172;28;98537;-67
2021/11/28 12:02:42;;;;;;;;;;;;;;;11.87;60.50;98771.94;4949802;28;98291;-67
2021/11/28 12:05:23;;;;;;;;;;;;;;;11.88;60.39;98774.34;4982017;28;99059;-58
2021/11/28 12:07:54;;;;;;;;;;;;;;;11.89;60.29;98775.13;4981731;28;99250;-58
2021/11/28 12:10:26;;;;;;;;;;;;;;;11.91;60.25;98776.41;4981805;28;97873;-58
2021/11/28 12:12:51;;;;;;;;;;;;;;;11.92;60.35;98772.59;4980725;28;97878;-67
2021/11/28 12:15:24;;;;;;;;;;;;;;;11.92;60.50;98772.59;4981148;28;128170;-67
2021/11/28 12:17:51;;;;;;;;;;;;;;;11.91;60.61;98767.53;4981838;28;98175;-58
2021/11/28 12:20:17;;;;;;;;;;;;;;;11.92;60.33;98774.50;4981851;28;98502;-58
2021/11/28 12:22:46;;;;;;;;;;;;;;;11.91;60.37;98776.41;4961850;28;117234;-67
2021/11/28 12:25:41;;;;;;;;;;;;;;;11.92;60.62;98774.50;4980819;28;113426;-58
2021/11/28 12:28:29;;;;;;;;;;;;;;;11.91;60.49;98773.72;4981033;28;98596;-58
2021/11/28 12:30:56;;;;;;;;;;;;;;;11.92;60.68;98767.19;4981987;28;98075;-66
2021/11/28 12:33:53;;;;;;;;;;;;;;;11.93;60.66;98766.06;4982244;28;98295;-58
2021/11/28 12:36:35;;;;;;;;;;;;;;;11.94;60.39;98770.34;4995708;27;98352;-67
2021/11/28 12:39:23;;;;;;;;;;;;;;;11.97;60.21;98763.53;5001133;27;98510;-58
2021/11/28 12:41:52;;;;;;;;;;;;;;;11.98;60.42;98765.13;5000487;27;98062;-67
2021/11/28 12:44:22;;;;;;;;;;;;;;;11.98;60.51;98763.22;5000843;27;97848;-58
2021/11/28 12:46:57;;;;;;;;;;;;;;;11.99;60.29;98762.13;4994615;27;98552;-58
2021/11/28 12:49:45;;;;;;;;;;;;;;;12.00;60.59;98754.81;5001813;27;98271;-68
2021/11/28 12:52:17;;;;;;;;;;;;;;;12.01;60.48;98759.88;5002090;27;98371;-58